sensor_id;sensor_type;location;lat;lon;timestamp;P1;durP1;ratioP1;P2;durP2;ratioP2
14613;SDS011;7393;51.446;6.800;2023-03-31T00:00:56;5.50;;;1.47;;
14613;SDS011;7393;51.446;6.800;2023-03-31T00:03:24;3.47;;;1.53;;
14613;SDS011;7393;51.446;6.800;2023-03-31T00:05:53;7.53;;;2.07;;
14613;SDS011;7393;51.446;6.800;2023-03-31T00:08:22;8.50;;;1.73;;
14613;SDS011;7393;51.446;6.800;2023-03-31T00:10:49;5.30;;;1.83;;
14613;SDS011;7393;51.446;6.800;2023-03-31T00:13:17;6.97;;;2.10;;
14613;SDS011;7393;51.446;6.800;2023-03-31T00:15:44;8.10;;;1.90;;
14613;SDS011;7393;51.446;6.800;2023-03-31T00:18:12;3.73;;;1.60;;
14613;SDS011;7393;51.446;6.800;2023-03-31T00:20:39;5.13;;;1.90;;
14613;SDS011;7393;51.446;6.800;2023-03-31T00:23:07;3.87;;;1.33;;
14613;SDS011;7393;51.446;6.800;2023-03-31T00:25:34;7.30;;;1.60;;
14613;SDS011;7393;51.446;6.800;2023-03-31T00:28:05;5.53;;;1.23;;
14613;SDS011;7393;51.446;6.800;2023-03-31T00:30:33;5.77;;;2.00;;
14613;SDS011;7393;51.446;6.800;2023-03-31T00:33:00;6.00;;;1.77;;
14613;SDS011;7393;51.446;6.800;2023-03-31T00:35:26;4.83;;;1.33;;
14613;SDS011;7393;51.446;6.800;2023-03-31T00:37:53;6.53;;;1.47;;
14613;SDS011;7393;51.446;6.800;2023-03-31T00:40:22;6.03;;;1.90;;
14613;SDS011;7393;51.446;6.800;2023-03-31T00:42:49;4.63;;;1.33;;
14613;SDS011;7393;51.446;6.800;2023-03-31T00:45:23;3.87;;;1.37;;
14613;SDS011;7393;51.446;6.800;2023-03-31T00:48:00;5.53;;;1.33;;
14613;SDS011;7393;51.446;6.800;2023-03-31T00:50:34;5.03;;;1.50;;
14613;SDS011;7393;51.446;6.800;2023-03-31T00:53:06;7.87;;;1.77;;
14613;SDS011;7393;51.446;6.800;2023-03-31T00:55:37;7.63;;;1.83;;
14613;SDS011;7393;51.446;6.800;2023-03-31T00:58:07;5.43;;;1.97;;
14613;SDS011;7393;51.446;6.800;2023-03-31T01:00:38;7.20;;;1.90;;
14613;SDS011;7393;51.446;6.800;2023-03-31T01:03:06;7.30;;;1.90;;
14613;SDS011;7393;51.446;6.800;2023-03-31T01:05:35;6.93;;;2.10;;
14613;SDS011;7393;51.446;6.800;2023-03-31T01:08:08;5.47;;;2.30;;
14613;SDS011;7393;51.446;6.800;2023-03-31T01:10:36;8.00;;;1.80;;
14613;SDS011;7393;51.446;6.800;2023-03-31T01:13:06;9.70;;;1.90;;
14613;SDS011;7393;51.446;6.800;2023-03-31T01:15:35;7.10;;;1.77;;
14613;SDS011;7393;51.446;6.800;2023-03-31T01:18:02;5.43;;;1.67;;
14613;SDS011;7393;51.446;6.800;2023-03-31T01:20:33;8.67;;;2.00;;
14613;SDS011;7393;51.446;6.800;2023-03-31T01:28:58;7.90;;;2.20;;
14613;SDS011;7393;51.446;6.800;2023-03-31T01:31:35;7.17;;;2.13;;
14613;SDS011;7393;51.446;6.800;2023-03-31T01:34:35;7.77;;;2.13;;
14613;SDS011;7393;51.446;6.800;2023-03-31T01:37:34;8.70;;;2.43;;
14613;SDS011;7393;51.446;6.800;2023-03-31T01:40:19;9.80;;;2.27;;
14613;SDS011;7393;51.446;6.800;2023-03-31T01:43:07;5.83;;;2.10;;
14613;SDS011;7393;51.446;6.800;2023-03-31T01:45:43;6.20;;;1.83;;
14613;SDS011;7393;51.446;6.800;2023-03-31T01:48:20;8.07;;;1.90;;
14613;SDS011;7393;51.446;6.800;2023-03-31T01:50:54;7.40;;;1.90;;
14613;SDS011;7393;51.446;6.800;2023-03-31T01:53:25;7.80;;;1.90;;
14613;SDS011;7393;51.446;6.800;2023-03-31T01:56:01;5.80;;;1.70;;
14613;SDS011;7393;51.446;6.800;2023-03-31T01:58:34;7.07;;;2.00;;
14613;SDS011;7393;51.446;6.800;2023-03-31T02:01:04;6.03;;;1.70;;
14613;SDS011;7393;51.446;6.800;2023-03-31T02:03:36;7.43;;;2.30;;
14613;SDS011;7393;51.446;6.800;2023-03-31T02:06:09;6.80;;;1.93;;
14613;SDS011;7393;51.446;6.800;2023-03-31T02:08:39;8.73;;;2.10;;
14613;SDS011;7393;51.446;6.800;2023-03-31T02:11:10;8.97;;;1.60;;
14613;SDS011;7393;51.446;6.800;2023-03-31T02:13:38;8.40;;;2.03;;
14613;SDS011;7393;51.446;6.800;2023-03-31T02:16:12;6.33;;;1.87;;
14613;SDS011;7393;51.446;6.800;2023-03-31T02:18:43;6.90;;;1.83;;
14613;SDS011;7393;51.446;6.800;2023-03-31T02:21:14;4.97;;;1.43;;
14613;SDS011;7393;51.446;6.800;2023-03-31T02:23:42;6.50;;;1.47;;
14613;SDS011;7393;51.446;6.800;2023-03-31T02:26:12;7.47;;;1.83;;
14613;SDS011;7393;51.446;6.800;2023-03-31T02:28:41;6.07;;;1.70;;
14613;SDS011;7393;51.446;6.800;2023-03-31T02:31:12;8.50;;;1.97;;
14613;SDS011;7393;51.446;6.800;2023-03-31T02:33:50;7.97;;;1.90;;
14613;SDS011;7393;51.446;6.800;2023-03-31T02:36:18;9.20;;;2.20;;
14613;SDS011;7393;51.446;6.800;2023-03-31T02:38:47;9.17;;;2.03;;
14613;SDS011;7393;51.446;6.800;2023-03-31T02:41:19;9.83;;;2.20;;
14613;SDS011;7393;51.446;6.800;2023-03-31T02:43:46;10.73;;;1.83;;
14613;SDS011;7393;51.446;6.800;2023-03-31T02:46:12;10.03;;;2.40;;
14613;SDS011;7393;51.446;6.800;2023-03-31T02:48:40;6.57;;;1.80;;
14613;SDS011;7393;51.446;6.800;2023-03-31T02:54:19;4.90;;;1.90;;
14613;SDS011;7393;51.446;6.800;2023-03-31T02:57:06;9.07;;;1.70;;
14613;SDS011;7393;51.446;6.800;2023-03-31T02:59:47;10.03;;;2.50;;
14613;SDS011;7393;51.446;6.800;2023-03-31T03:02:24;10.40;;;2.30;;
14613;SDS011;7393;51.446;6.800;2023-03-31T03:05:20;10.30;;;2.40;;
14613;SDS011;7393;51.446;6.800;2023-03-31T03:07:55;11.73;;;2.63;;
14613;SDS011;7393;51.446;6.800;2023-03-31T03:10:33;8.63;;;2.30;;
14613;SDS011;7393;51.446;6.800;2023-03-31T03:13:08;15.33;;;2.60;;
14613;SDS011;7393;51.446;6.800;2023-03-31T03:15:46;10.10;;;2.30;;
14613;SDS011;7393;51.446;6.800;2023-03-31T03:18:15;10.07;;;2.67;;
14613;SDS011;7393;51.446;6.800;2023-03-31T03:20:42;14.17;;;2.37;;
14613;SDS011;7393;51.446;6.800;2023-03-31T03:23:15;13.87;;;3.13;;
14613;SDS011;7393;51.446;6.800;2023-03-31T03:25:42;11.63;;;2.50;;
14613;SDS011;7393;51.446;6.800;2023-03-31T03:28:11;10.20;;;2.33;;
14613;SDS011;7393;51.446;6.800;2023-03-31T03:30:38;14.93;;;2.47;;
14613;SDS011;7393;51.446;6.800;2023-03-31T03:33:04;11.73;;;2.50;;
14613;SDS011;7393;51.446;6.800;2023-03-31T03:35:31;13.00;;;2.40;;
14613;SDS011;7393;51.446;6.800;2023-03-31T03:37:58;14.53;;;2.47;;
14613;SDS011;7393;51.446;6.800;2023-03-31T03:40:25;14.27;;;2.93;;
14613;SDS011;7393;51.446;6.800;2023-03-31T03:42:51;14.43;;;2.60;;
14613;SDS011;7393;51.446;6.800;2023-03-31T03:45:19;12.80;;;3.00;;
14613;SDS011;7393;51.446;6.800;2023-03-31T03:47:46;13.67;;;2.40;;
14613;SDS011;7393;51.446;6.800;2023-03-31T03:50:13;11.63;;;3.43;;
14613;SDS011;7393;51.446;6.800;2023-03-31T03:52:40;14.43;;;2.77;;
14613;SDS011;7393;51.446;6.800;2023-03-31T03:55:07;15.60;;;2.60;;
14613;SDS011;7393;51.446;6.800;2023-03-31T03:57:36;10.27;;;2.50;;
14613;SDS011;7393;51.446;6.800;2023-03-31T04:00:03;9.77;;;2.40;;
14613;SDS011;7393;51.446;6.800;2023-03-31T04:02:35;14.03;;;2.80;;
14613;SDS011;7393;51.446;6.800;2023-03-31T04:05:02;15.47;;;3.27;;
14613;SDS011;7393;51.446;6.800;2023-03-31T04:07:29;11.00;;;2.67;;
14613;SDS011;7393;51.446;6.800;2023-03-31T04:09:56;16.30;;;2.90;;
14613;SDS011;7393;51.446;6.800;2023-03-31T04:12:23;12.33;;;3.00;;
14613;SDS011;7393;51.446;6.800;2023-03-31T04:14:50;14.37;;;2.70;;
14613;SDS011;7393;51.446;6.800;2023-03-31T04:17:16;13.30;;;3.00;;
14613;SDS011;7393;51.446;6.800;2023-03-31T04:19:45;12.27;;;3.47;;
14613;SDS011;7393;51.446;6.800;2023-03-31T04:22:14;10.60;;;2.73;;
14613;SDS011;7393;51.446;6.800;2023-03-31T04:24:44;15.50;;;2.87;;
14613;SDS011;7393;51.446;6.800;2023-03-31T04:27:16;10.63;;;2.60;;
14613;SDS011;7393;51.446;6.800;2023-03-31T04:29:45;11.97;;;3.37;;
14613;SDS011;7393;51.446;6.800;2023-03-31T04:32:18;16.50;;;3.10;;
14613;SDS011;7393;51.446;6.800;2023-03-31T04:34:47;14.27;;;2.70;;
14613;SDS011;7393;51.446;6.800;2023-03-31T04:37:14;11.97;;;2.50;;
14613;SDS011;7393;51.446;6.800;2023-03-31T04:39:42;10.00;;;2.60;;
14613;SDS011;7393;51.446;6.800;2023-03-31T04:42:10;15.20;;;2.80;;
14613;SDS011;7393;51.446;6.800;2023-03-31T04:44:38;13.63;;;2.60;;
14613;SDS011;7393;51.446;6.800;2023-03-31T04:47:05;11.37;;;2.77;;
14613;SDS011;7393;51.446;6.800;2023-03-31T04:49:32;9.87;;;2.80;;
14613;SDS011;7393;51.446;6.800;2023-03-31T04:52:01;10.13;;;2.20;;
14613;SDS011;7393;51.446;6.800;2023-03-31T04:54:28;9.90;;;2.40;;
14613;SDS011;7393;51.446;6.800;2023-03-31T04:56:54;9.63;;;2.70;;
14613;SDS011;7393;51.446;6.800;2023-03-31T04:59:21;12.33;;;2.37;;
14613;SDS011;7393;51.446;6.800;2023-03-31T05:01:48;10.40;;;2.17;;
14613;SDS011;7393;51.446;6.800;2023-03-31T05:04:15;10.73;;;2.93;;
14613;SDS011;7393;51.446;6.800;2023-03-31T05:06:41;7.03;;;1.90;;
14613;SDS011;7393;51.446;6.800;2023-03-31T05:09:09;8.33;;;2.20;;
14613;SDS011;7393;51.446;6.800;2023-03-31T05:11:36;8.77;;;2.30;;
14613;SDS011;7393;51.446;6.800;2023-03-31T05:14:03;8.63;;;2.17;;
14613;SDS011;7393;51.446;6.800;2023-03-31T05:16:30;8.43;;;2.30;;
14613;SDS011;7393;51.446;6.800;2023-03-31T05:18:57;9.70;;;2.30;;
14613;SDS011;7393;51.446;6.800;2023-03-31T05:21:24;6.03;;;1.70;;
14613;SDS011;7393;51.446;6.800;2023-03-31T05:23:54;8.80;;;2.20;;
14613;SDS011;7393;51.446;6.800;2023-03-31T05:26:23;7.10;;;2.13;;
14613;SDS011;7393;51.446;6.800;2023-03-31T05:28:50;5.43;;;1.90;;
14613;SDS011;7393;51.446;6.800;2023-03-31T05:31:17;8.07;;;2.40;;
14613;SDS011;7393;51.446;6.800;2023-03-31T05:33:44;5.77;;;1.70;;
14613;SDS011;7393;51.446;6.800;2023-03-31T05:36:11;9.10;;;2.00;;
14613;SDS011;7393;51.446;6.800;2023-03-31T05:38:39;16.17;;;2.33;;
14613;SDS011;7393;51.446;6.800;2023-03-31T05:41:07;6.00;;;2.00;;
14613;SDS011;7393;51.446;6.800;2023-03-31T05:43:36;5.43;;;1.60;;
14613;SDS011;7393;51.446;6.800;2023-03-31T05:46:04;7.87;;;2.07;;
14613;SDS011;7393;51.446;6.800;2023-03-31T05:48:31;10.10;;;2.20;;
14613;SDS011;7393;51.446;6.800;2023-03-31T05:50:58;6.33;;;1.83;;
14613;SDS011;7393;51.446;6.800;2023-03-31T05:53:26;7.67;;;1.70;;
14613;SDS011;7393;51.446;6.800;2023-03-31T05:55:55;5.97;;;1.77;;
14613;SDS011;7393;51.446;6.800;2023-03-31T05:58:23;10.33;;;2.00;;
14613;SDS011;7393;51.446;6.800;2023-03-31T06:00:58;11.50;;;2.00;;
14613;SDS011;7393;51.446;6.800;2023-03-31T06:03:26;8.80;;;1.90;;
14613;SDS011;7393;51.446;6.800;2023-03-31T06:05:53;5.23;;;1.60;;
14613;SDS011;7393;51.446;6.800;2023-03-31T06:08:19;7.30;;;1.90;;
14613;SDS011;7393;51.446;6.800;2023-03-31T06:10:46;10.27;;;1.73;;
14613;SDS011;7393;51.446;6.800;2023-03-31T06:13:13;10.33;;;2.07;;
14613;SDS011;7393;51.446;6.800;2023-03-31T06:15:40;5.50;;;1.70;;
14613;SDS011;7393;51.446;6.800;2023-03-31T06:18:08;6.47;;;1.80;;
14613;SDS011;7393;51.446;6.800;2023-03-31T06:20:35;5.87;;;1.73;;
14613;SDS011;7393;51.446;6.800;2023-03-31T06:23:01;8.47;;;2.07;;
14613;SDS011;7393;51.446;6.800;2023-03-31T06:25:28;9.30;;;1.97;;
14613;SDS011;7393;51.446;6.800;2023-03-31T06:27:55;5.17;;;1.90;;
14613;SDS011;7393;51.446;6.800;2023-03-31T06:30:22;7.90;;;2.07;;
14613;SDS011;7393;51.446;6.800;2023-03-31T06:32:48;5.17;;;1.90;;
14613;SDS011;7393;51.446;6.800;2023-03-31T06:35:17;7.03;;;2.30;;
14613;SDS011;7393;51.446;6.800;2023-03-31T06:37:43;9.77;;;2.60;;
14613;SDS011;7393;51.446;6.800;2023-03-31T06:40:10;14.00;;;2.40;;
14613;SDS011;7393;51.446;6.800;2023-03-31T06:42:37;7.70;;;2.00;;
14613;SDS011;7393;51.446;6.800;2023-03-31T06:45:05;11.30;;;1.87;;
14613;SDS011;7393;51.446;6.800;2023-03-31T06:47:32;11.80;;;2.07;;
14613;SDS011;7393;51.446;6.800;2023-03-31T06:49:59;7.47;;;2.17;;
14613;SDS011;7393;51.446;6.800;2023-03-31T06:52:27;6.43;;;2.30;;
14613;SDS011;7393;51.446;6.800;2023-03-31T06:54:54;10.47;;;2.57;;
14613;SDS011;7393;51.446;6.800;2023-03-31T06:57:20;7.97;;;2.10;;
14613;SDS011;7393;51.446;6.800;2023-03-31T06:59:47;11.50;;;2.77;;
14613;SDS011;7393;51.446;6.800;2023-03-31T07:02:14;10.00;;;2.67;;
14613;SDS011;7393;51.446;6.800;2023-03-31T07:04:41;9.53;;;2.47;;
14613;SDS011;7393;51.446;6.800;2023-03-31T07:07:08;10.80;;;2.77;;
14613;SDS011;7393;51.446;6.800;2023-03-31T07:09:36;9.50;;;2.67;;
14613;SDS011;7393;51.446;6.800;2023-03-31T07:12:03;8.20;;;2.53;;
14613;SDS011;7393;51.446;6.800;2023-03-31T07:14:30;8.27;;;2.10;;
14613;SDS011;7393;51.446;6.800;2023-03-31T07:16:56;9.73;;;2.70;;
14613;SDS011;7393;51.446;6.800;2023-03-31T07:19:23;10.53;;;2.37;;
14613;SDS011;7393;51.446;6.800;2023-03-31T07:21:50;10.67;;;2.40;;
14613;SDS011;7393;51.446;6.800;2023-03-31T07:24:18;11.13;;;3.10;;
14613;SDS011;7393;51.446;6.800;2023-03-31T07:26:46;8.07;;;2.50;;
14613;SDS011;7393;51.446;6.800;2023-03-31T07:29:12;6.17;;;2.20;;
14613;SDS011;7393;51.446;6.800;2023-03-31T07:31:39;6.10;;;2.10;;
14613;SDS011;7393;51.446;6.800;2023-03-31T07:34:06;7.80;;;2.80;;
14613;SDS011;7393;51.446;6.800;2023-03-31T07:36:33;7.47;;;2.37;;
14613;SDS011;7393;51.446;6.800;2023-03-31T07:38:59;9.13;;;2.43;;
14613;SDS011;7393;51.446;6.800;2023-03-31T07:41:26;7.23;;;2.50;;
14613;SDS011;7393;51.446;6.800;2023-03-31T07:43:54;5.93;;;2.50;;
14613;SDS011;7393;51.446;6.800;2023-03-31T07:46:22;5.87;;;2.03;;
14613;SDS011;7393;51.446;6.800;2023-03-31T07:48:50;11.63;;;2.77;;
14613;SDS011;7393;51.446;6.800;2023-03-31T07:51:18;10.67;;;2.90;;
14613;SDS011;7393;51.446;6.800;2023-03-31T07:53:47;8.40;;;2.80;;
14613;SDS011;7393;51.446;6.800;2023-03-31T07:56:16;9.57;;;2.53;;
14613;SDS011;7393;51.446;6.800;2023-03-31T07:58:44;8.33;;;2.73;;
14613;SDS011;7393;51.446;6.800;2023-03-31T08:01:13;6.50;;;2.40;;
14613;SDS011;7393;51.446;6.800;2023-03-31T08:03:42;18.13;;;3.17;;
14613;SDS011;7393;51.446;6.800;2023-03-31T08:06:10;10.13;;;2.77;;
14613;SDS011;7393;51.446;6.800;2023-03-31T08:08:37;8.00;;;2.77;;
14613;SDS011;7393;51.446;6.800;2023-03-31T08:11:07;7.63;;;3.13;;
14613;SDS011;7393;51.446;6.800;2023-03-31T08:13:33;6.13;;;2.77;;
14613;SDS011;7393;51.446;6.800;2023-03-31T08:16:00;10.77;;;2.73;;
14613;SDS011;7393;51.446;6.800;2023-03-31T08:18:29;10.43;;;2.77;;
14613;SDS011;7393;51.446;6.800;2023-03-31T08:20:55;11.63;;;2.80;;
14613;SDS011;7393;51.446;6.800;2023-03-31T09:32:43;11.77;;;3.27;;
14613;SDS011;7393;51.446;6.800;2023-03-31T09:35:13;17.23;;;3.37;;
14613;SDS011;7393;51.446;6.800;2023-03-31T09:37:42;12.60;;;3.17;;
14613;SDS011;7393;51.446;6.800;2023-03-31T09:40:13;17.90;;;4.37;;
14613;SDS011;7393;51.446;6.800;2023-03-31T09:42:42;17.07;;;3.83;;
14613;SDS011;7393;51.446;6.800;2023-03-31T09:45:12;27.07;;;10.77;;
14613;SDS011;7393;51.446;6.800;2023-03-31T09:47:41;21.13;;;6.27;;
14613;SDS011;7393;51.446;6.800;2023-03-31T09:50:11;22.20;;;5.47;;
14613;SDS011;7393;51.446;6.800;2023-03-31T09:52:38;14.27;;;4.07;;
14613;SDS011;7393;51.446;6.800;2023-03-31T09:55:14;10.30;;;2.90;;
14613;SDS011;7393;51.446;6.800;2023-03-31T09:57:45;16.43;;;3.60;;
14613;SDS011;7393;51.446;6.800;2023-03-31T10:00:14;12.77;;;3.00;;
14613;SDS011;7393;51.446;6.800;2023-03-31T10:02:46;14.23;;;3.27;;
14613;SDS011;7393;51.446;6.800;2023-03-31T10:05:21;13.13;;;3.07;;
14613;SDS011;7393;51.446;6.800;2023-03-31T10:07:53;16.77;;;3.30;;
14613;SDS011;7393;51.446;6.800;2023-03-31T10:10:42;10.93;;;2.87;;
14613;SDS011;7393;51.446;6.800;2023-03-31T10:13:13;13.90;;;3.10;;
14613;SDS011;7393;51.446;6.800;2023-03-31T10:15:42;13.47;;;3.03;;
14613;SDS011;7393;51.446;6.800;2023-03-31T10:18:13;11.93;;;2.93;;
14613;SDS011;7393;51.446;6.800;2023-03-31T10:20:42;13.87;;;2.83;;
14613;SDS011;7393;51.446;6.800;2023-03-31T10:23:14;8.23;;;2.30;;
14613;SDS011;7393;51.446;6.800;2023-03-31T10:25:43;11.87;;;2.57;;
14613;SDS011;7393;51.446;6.800;2023-03-31T10:28:11;11.37;;;2.13;;
14613;SDS011;7393;51.446;6.800;2023-03-31T10:30:45;11.00;;;2.43;;
14613;SDS011;7393;51.446;6.800;2023-03-31T10:33:16;13.80;;;2.83;;
14613;SDS011;7393;51.446;6.800;2023-03-31T10:35:46;12.93;;;3.20;;
14613;SDS011;7393;51.446;6.800;2023-03-31T10:38:16;13.73;;;2.63;;
14613;SDS011;7393;51.446;6.800;2023-03-31T10:40:48;11.23;;;3.07;;
14613;SDS011;7393;51.446;6.800;2023-03-31T10:43:17;11.23;;;2.87;;
14613;SDS011;7393;51.446;6.800;2023-03-31T10:45:50;12.73;;;2.50;;
14613;SDS011;7393;51.446;6.800;2023-03-31T10:48:22;12.50;;;3.30;;
14613;SDS011;7393;51.446;6.800;2023-03-31T10:50:50;11.10;;;2.80;;
14613;SDS011;7393;51.446;6.800;2023-03-31T10:53:17;10.73;;;2.70;;
14613;SDS011;7393;51.446;6.800;2023-03-31T10:55:47;14.20;;;3.27;;
14613;SDS011;7393;51.446;6.800;2023-03-31T10:58:25;8.80;;;2.83;;
14613;SDS011;7393;51.446;6.800;2023-03-31T11:01:12;11.80;;;3.10;;
14613;SDS011;7393;51.446;6.800;2023-03-31T11:03:54;7.87;;;2.33;;
14613;SDS011;7393;51.446;6.800;2023-03-31T11:06:31;7.40;;;2.17;;
14613;SDS011;7393;51.446;6.800;2023-03-31T11:09:08;5.13;;;1.67;;
14613;SDS011;7393;51.446;6.800;2023-03-31T11:11:48;5.23;;;1.60;;
14613;SDS011;7393;51.446;6.800;2023-03-31T11:14:25;6.50;;;2.13;;
14613;SDS011;7393;51.446;6.800;2023-03-31T11:17:01;13.90;;;2.27;;
14613;SDS011;7393;51.446;6.800;2023-03-31T11:19:43;8.13;;;2.13;;
14613;SDS011;7393;51.446;6.800;2023-03-31T11:22:15;8.63;;;2.10;;
14613;SDS011;7393;51.446;6.800;2023-03-31T11:24:59;7.67;;;1.80;;
14613;SDS011;7393;51.446;6.800;2023-03-31T11:30:49;4.83;;;1.57;;
14613;SDS011;7393;51.446;6.800;2023-03-31T11:33:27;8.00;;;2.13;;
14613;SDS011;7393;51.446;6.800;2023-03-31T11:36:09;6.80;;;1.47;;
14613;SDS011;7393;51.446;6.800;2023-03-31T11:38:48;4.10;;;1.13;;
14613;SDS011;7393;51.446;6.800;2023-03-31T11:41:27;7.93;;;2.10;;
14613;SDS011;7393;51.446;6.800;2023-03-31T11:43:59;4.77;;;1.40;;
14613;SDS011;7393;51.446;6.800;2023-03-31T11:46:31;5.43;;;1.40;;
14613;SDS011;7393;51.446;6.800;2023-03-31T11:49:05;6.50;;;1.67;;
14613;SDS011;7393;51.446;6.800;2023-03-31T11:51:42;3.47;;;1.60;;
14613;SDS011;7393;51.446;6.800;2023-03-31T11:54:15;7.17;;;1.90;;
14613;SDS011;7393;51.446;6.800;2023-03-31T11:56:45;6.50;;;1.60;;
14613;SDS011;7393;51.446;6.800;2023-03-31T11:59:13;5.50;;;1.80;;
14613;SDS011;7393;51.446;6.800;2023-03-31T12:01:43;8.33;;;2.17;;
14613;SDS011;7393;51.446;6.800;2023-03-31T12:04:19;6.13;;;1.77;;
14613;SDS011;7393;51.446;6.800;2023-03-31T12:06:57;6.87;;;1.67;;
14613;SDS011;7393;51.446;6.800;2023-03-31T12:09:29;9.23;;;2.43;;
14613;SDS011;7393;51.446;6.800;2023-03-31T12:12:03;11.37;;;2.37;;
14613;SDS011;7393;51.446;6.800;2023-03-31T12:14:35;6.87;;;1.90;;
14613;SDS011;7393;51.446;6.800;2023-03-31T12:17:09;7.07;;;2.07;;
14613;SDS011;7393;51.446;6.800;2023-03-31T12:19:39;6.33;;;1.83;;
14613;SDS011;7393;51.446;6.800;2023-03-31T12:22:15;7.37;;;2.03;;
14613;SDS011;7393;51.446;6.800;2023-03-31T12:24:44;9.23;;;2.10;;
14613;SDS011;7393;51.446;6.800;2023-03-31T12:27:12;7.13;;;2.10;;
14613;SDS011;7393;51.446;6.800;2023-03-31T12:29:44;11.30;;;2.40;;
14613;SDS011;7393;51.446;6.800;2023-03-31T12:32:17;7.07;;;2.10;;
14613;SDS011;7393;51.446;6.800;2023-03-31T12:34:47;8.20;;;1.90;;
14613;SDS011;7393;51.446;6.800;2023-03-31T12:37:34;7.63;;;2.03;;
14613;SDS011;7393;51.446;6.800;2023-03-31T12:40:21;8.50;;;2.40;;
14613;SDS011;7393;51.446;6.800;2023-03-31T12:43:01;9.90;;;2.70;;
14613;SDS011;7393;51.446;6.800;2023-03-31T12:45:40;7.57;;;2.10;;
14613;SDS011;7393;51.446;6.800;2023-03-31T12:48:19;12.53;;;2.70;;
14613;SDS011;7393;51.446;6.800;2023-03-31T12:51:08;9.57;;;2.17;;
14613;SDS011;7393;51.446;6.800;2023-03-31T12:53:46;9.57;;;2.37;;
14613;SDS011;7393;51.446;6.800;2023-03-31T12:56:24;8.23;;;2.13;;
14613;SDS011;7393;51.446;6.800;2023-03-31T12:58:51;9.40;;;2.20;;
14613;SDS011;7393;51.446;6.800;2023-03-31T13:01:19;8.57;;;1.70;;
14613;SDS011;7393;51.446;6.800;2023-03-31T13:03:47;8.90;;;2.33;;
14613;SDS011;7393;51.446;6.800;2023-03-31T13:12:15;7.53;;;1.57;;
14613;SDS011;7393;51.446;6.800;2023-03-31T13:14:44;9.73;;;2.47;;
14613;SDS011;7393;51.446;6.800;2023-03-31T13:17:22;8.97;;;2.33;;
14613;SDS011;7393;51.446;6.800;2023-03-31T13:19:51;6.13;;;1.60;;
14613;SDS011;7393;51.446;6.800;2023-03-31T13:22:29;6.70;;;1.87;;
14613;SDS011;7393;51.446;6.800;2023-03-31T13:28:07;6.80;;;1.90;;
14613;SDS011;7393;51.446;6.800;2023-03-31T13:30:48;9.00;;;2.20;;
14613;SDS011;7393;51.446;6.800;2023-03-31T13:33:19;6.43;;;2.10;;
14613;SDS011;7393;51.446;6.800;2023-03-31T13:35:53;9.37;;;2.20;;
14613;SDS011;7393;51.446;6.800;2023-03-31T13:38:35;5.37;;;1.47;;
14613;SDS011;7393;51.446;6.800;2023-03-31T13:41:16;5.87;;;1.80;;
14613;SDS011;7393;51.446;6.800;2023-03-31T13:43:56;4.73;;;1.40;;
14613;SDS011;7393;51.446;6.800;2023-03-31T13:46:46;6.03;;;1.57;;
14613;SDS011;7393;51.446;6.800;2023-03-31T13:49:36;7.07;;;1.50;;
14613;SDS011;7393;51.446;6.800;2023-03-31T13:52:19;5.30;;;1.50;;
14613;SDS011;7393;51.446;6.800;2023-03-31T13:55:05;5.03;;;1.57;;
14613;SDS011;7393;51.446;6.800;2023-03-31T13:57:59;8.63;;;1.90;;
14613;SDS011;7393;51.446;6.800;2023-03-31T14:00:54;5.43;;;1.40;;
14613;SDS011;7393;51.446;6.800;2023-03-31T14:03:37;5.07;;;1.50;;
14613;SDS011;7393;51.446;6.800;2023-03-31T14:06:22;3.77;;;1.43;;
14613;SDS011;7393;51.446;6.800;2023-03-31T14:08:57;6.53;;;1.63;;
14613;SDS011;7393;51.446;6.800;2023-03-31T14:11:27;4.70;;;1.40;;
14613;SDS011;7393;51.446;6.800;2023-03-31T14:14:00;6.20;;;1.80;;
14613;SDS011;7393;51.446;6.800;2023-03-31T14:16:28;5.00;;;1.67;;
14613;SDS011;7393;51.446;6.800;2023-03-31T14:19:02;7.17;;;1.77;;
14613;SDS011;7393;51.446;6.800;2023-03-31T14:21:42;4.83;;;1.77;;
14613;SDS011;7393;51.446;6.800;2023-03-31T14:24:18;7.37;;;2.30;;
14613;SDS011;7393;51.446;6.800;2023-03-31T14:26:53;7.83;;;2.90;;
14613;SDS011;7393;51.446;6.800;2023-03-31T14:29:32;10.23;;;2.87;;
14613;SDS011;7393;51.446;6.800;2023-03-31T14:32:06;8.17;;;3.03;;
14613;SDS011;7393;51.446;6.800;2023-03-31T14:34:45;6.30;;;2.93;;
14613;SDS011;7393;51.446;6.800;2023-03-31T14:37:21;9.83;;;2.27;;
14613;SDS011;7393;51.446;6.800;2023-03-31T14:39:49;4.83;;;1.97;;
14613;SDS011;7393;51.446;6.800;2023-03-31T14:42:20;7.73;;;1.57;;
14613;SDS011;7393;51.446;6.800;2023-03-31T14:44:55;7.07;;;1.57;;
14613;SDS011;7393;51.446;6.800;2023-03-31T14:47:23;5.80;;;1.60;;
14613;SDS011;7393;51.446;6.800;2023-03-31T14:49:59;8.53;;;2.33;;
14613;SDS011;7393;51.446;6.800;2023-03-31T14:52:28;6.80;;;1.90;;
14613;SDS011;7393;51.446;6.800;2023-03-31T14:54:57;10.07;;;2.17;;
14613;SDS011;7393;51.446;6.800;2023-03-31T14:57:26;10.20;;;3.20;;
14613;SDS011;7393;51.446;6.800;2023-03-31T14:59:58;13.73;;;3.03;;
14613;SDS011;7393;51.446;6.800;2023-03-31T15:02:30;10.03;;;3.50;;
14613;SDS011;7393;51.446;6.800;2023-03-31T15:05:00;10.20;;;4.00;;
14613;SDS011;7393;51.446;6.800;2023-03-31T15:07:29;10.73;;;3.37;;
14613;SDS011;7393;51.446;6.800;2023-03-31T15:09:56;9.60;;;3.10;;
14613;SDS011;7393;51.446;6.800;2023-03-31T15:12:23;6.47;;;2.20;;
14613;SDS011;7393;51.446;6.800;2023-03-31T15:14:51;8.87;;;2.20;;
14613;SDS011;7393;51.446;6.800;2023-03-31T15:17:23;10.80;;;2.10;;
14613;SDS011;7393;51.446;6.800;2023-03-31T15:19:52;9.17;;;2.23;;
14613;SDS011;7393;51.446;6.800;2023-03-31T15:22:21;9.10;;;2.20;;
14613;SDS011;7393;51.446;6.800;2023-03-31T15:24:49;9.40;;;2.20;;
14613;SDS011;7393;51.446;6.800;2023-03-31T15:27:17;5.37;;;1.90;;
14613;SDS011;7393;51.446;6.800;2023-03-31T15:29:51;5.60;;;1.70;;
14613;SDS011;7393;51.446;6.800;2023-03-31T15:32:24;9.17;;;1.97;;
14613;SDS011;7393;51.446;6.800;2023-03-31T15:34:53;7.50;;;2.00;;
14613;SDS011;7393;51.446;6.800;2023-03-31T15:37:21;6.17;;;1.50;;
14613;SDS011;7393;51.446;6.800;2023-03-31T15:39:51;3.40;;;1.10;;
14613;SDS011;7393;51.446;6.800;2023-03-31T15:42:22;6.70;;;1.83;;
14613;SDS011;7393;51.446;6.800;2023-03-31T15:44:52;4.10;;;2.03;;
14613;SDS011;7393;51.446;6.800;2023-03-31T15:47:20;3.40;;;1.53;;
14613;SDS011;7393;51.446;6.800;2023-03-31T15:49:54;4.13;;;1.30;;
14613;SDS011;7393;51.446;6.800;2023-03-31T15:52:28;4.47;;;1.17;;
14613;SDS011;7393;51.446;6.800;2023-03-31T15:54:58;5.07;;;1.40;;
14613;SDS011;7393;51.446;6.800;2023-03-31T15:57:30;4.23;;;1.37;;
14613;SDS011;7393;51.446;6.800;2023-03-31T15:59:58;6.13;;;1.53;;
14613;SDS011;7393;51.446;6.800;2023-03-31T16:02:29;5.17;;;1.43;;
14613;SDS011;7393;51.446;6.800;2023-03-31T16:05:05;4.57;;;1.40;;
14613;SDS011;7393;51.446;6.800;2023-03-31T16:07:45;5.30;;;1.50;;
14613;SDS011;7393;51.446;6.800;2023-03-31T16:10:14;3.33;;;1.30;;
14613;SDS011;7393;51.446;6.800;2023-03-31T16:12:47;7.07;;;1.10;;
14613;SDS011;7393;51.446;6.800;2023-03-31T16:15:17;3.80;;;1.20;;
14613;SDS011;7393;51.446;6.800;2023-03-31T16:17:49;4.03;;;1.00;;
14613;SDS011;7393;51.446;6.800;2023-03-31T16:20:19;1.90;;;0.90;;
14613;SDS011;7393;51.446;6.800;2023-03-31T16:22:50;3.73;;;1.27;;
14613;SDS011;7393;51.446;6.800;2023-03-31T16:25:19;2.70;;;1.07;;
14613;SDS011;7393;51.446;6.800;2023-03-31T16:27:48;4.10;;;1.30;;
14613;SDS011;7393;51.446;6.800;2023-03-31T16:30:19;4.47;;;1.37;;
14613;SDS011;7393;51.446;6.800;2023-03-31T16:32:58;2.53;;;1.10;;
14613;SDS011;7393;51.446;6.800;2023-03-31T16:35:30;3.20;;;1.20;;
14613;SDS011;7393;51.446;6.800;2023-03-31T16:37:58;1.93;;;1.00;;
14613;SDS011;7393;51.446;6.800;2023-03-31T16:40:27;3.17;;;1.30;;
14613;SDS011;7393;51.446;6.800;2023-03-31T16:43:06;2.27;;;1.00;;
14613;SDS011;7393;51.446;6.800;2023-03-31T16:45:37;3.80;;;1.20;;
14613;SDS011;7393;51.446;6.800;2023-03-31T16:48:06;2.00;;;1.03;;
14613;SDS011;7393;51.446;6.800;2023-03-31T16:50:32;4.03;;;1.10;;
14613;SDS011;7393;51.446;6.800;2023-03-31T16:52:59;3.10;;;1.20;;